Time;durP1;ratioP1;P1;durP2;ratioP2;P2;SDS_P1;SDS_P2;PMS_P1;PMS_P2;Temp;Humidity;BMP_temperature;BMP_pressure;BME280_temperature;BME280_humidity;BME280_pressure;Samples;Min_cycle;Max_cycle;Signal;HPM_P1;HPM_P2
2022/04/29 00:00:27;;;;;;;11.25;5.60;;;7.10;99.90;;;;;;5056955;28;20048;-71
2022/04/29 00:02:52;;;;;;;10.00;4.55;;;7.00;99.90;;;;;;5055597;28;20044;-71
2022/04/29 00:05:19;;;;;;;10.00;5.45;;;7.00;99.90;;;;;;5054669;28;20071;-71
2022/04/29 00:07:45;;;;;;;8.13;5.00;;;7.00;99.90;;;;;;5054896;28;20504;-71
2022/04/29 00:10:14;;;;;;;10.57;5.10;;;7.00;99.90;;;;;;5055492;28;20037;-71
2022/04/29 00:12:46;;;;;;;11.25;5.95;;;7.00;99.90;;;;;;5055473;28;20098;-70
2022/04/29 00:15:13;;;;;;;8.63;5.00;;;6.90;99.90;;;;;;5054622;28;20401;-71
2022/04/29 00:17:39;;;;;;;9.25;5.05;;;6.80;99.90;;;;;;5053936;28;20068;-71
2022/04/29 00:20:06;;;;;;;11.73;5.57;;;6.80;99.90;;;;;;5054107;28;20063;-71
2022/04/29 00:22:32;;;;;;;9.50;5.28;;;6.90;99.90;;;;;;5055692;28;20500;-71
2022/04/29 00:24:58;;;;;;;10.98;5.38;;;7.00;99.90;;;;;;5038157;28;20517;-71
2022/04/29 00:27:23;;;;;;;11.70;5.30;;;7.00;99.90;;;;;;5054808;28;20044;-71
2022/04/29 00:29:49;;;;;;;10.10;5.45;;;6.90;99.90;;;;;;5037916;28;20032;-71
2022/04/29 00:32:15;;;;;;;11.10;5.95;;;6.90;99.90;;;;;;5055084;28;20485;-71
2022/04/29 00:34:40;;;;;;;11.52;5.80;;;6.90;99.90;;;;;;5037241;28;20049;-71
2022/04/29 00:37:06;;;;;;;10.50;5.65;;;6.80;99.90;;;;;;5055033;28;20072;-71
2022/04/29 00:39:31;;;;;;;10.15;5.45;;;6.80;99.90;;;;;;5054958;28;20493;-71
2022/04/29 00:41:57;;;;;;;9.57;5.65;;;6.80;99.90;;;;;;5038502;28;20106;-71
2022/04/29 00:44:23;;;;;;;11.20;6.20;;;6.70;99.90;;;;;;5054698;28;20045;-71
2022/04/29 00:46:50;;;;;;;11.40;6.07;;;6.60;99.90;;;;;;5053947;28;20056;-70
2022/04/29 00:49:17;;;;;;;11.68;6.20;;;6.60;99.90;;;;;;5037388;28;20064;-70
2022/04/29 00:51:49;;;;;;;10.98;6.35;;;6.50;99.90;;;;;;5054694;28;20489;-70
2022/04/29 00:54:22;;;;;;;9.70;5.78;;;6.50;99.90;;;;;;5054580;28;20048;-71
2022/04/29 00:56:51;;;;;;;11.55;6.13;;;6.40;99.90;;;;;;5071233;28;20044;-71
2022/04/29 00:59:23;;;;;;;9.98;6.53;;;6.40;99.90;;;;;;5054770;28;20044;-70
2022/04/29 01:01:50;;;;;;;10.95;6.10;;;6.30;99.90;;;;;;5054995;28;20040;-71
2022/04/29 01:04:28;;;;;;;12.88;6.25;;;6.30;99.90;;;;;;5053870;28;20033;-71
2022/04/29 01:06:54;;;;;;;8.15;5.50;;;6.30;99.90;;;;;;5054081;28;20048;-71
2022/04/29 01:09:19;;;;;;;11.40;6.20;;;6.30;99.90;;;;;;5038039;28;20041;-71
2022/04/29 01:11:45;;;;;;;11.00;6.30;;;6.30;99.90;;;;;;5053910;28;20061;-71
2022/04/29 01:14:11;;;;;;;10.52;6.00;;;6.30;99.90;;;;;;5053665;28;20045;-70
2022/04/29 01:16:37;;;;;;;14.80;6.43;;;6.30;99.90;;;;;;5053443;28;20043;-71
2022/04/29 01:19:02;;;;;;;11.77;6.45;;;6.10;99.90;;;;;;5053277;28;20140;-71
2022/04/29 01:21:28;;;;;;;9.52;5.70;;;6.00;99.90;;;;;;5054327;28;20048;-71
2022/04/29 01:23:53;;;;;;;9.77;5.57;;;5.90;99.90;;;;;;5069904;28;20033;-71
2022/04/29 01:26:19;;;;;;;9.32;5.35;;;5.80;99.90;;;;;;5038159;28;20090;-71
2022/04/29 01:28:45;;;;;;;13.98;6.15;;;5.90;99.90;;;;;;5057025;28;20041;-71
2022/04/29 01:31:14;;;;;;;11.18;6.32;;;5.80;99.90;;;;;;5037334;28;20044;-70
2022/04/29 01:33:48;;;;;;;11.55;6.65;;;5.70;99.90;;;;;;5053903;28;20433;-71
2022/04/29 01:36:14;;;;;;;9.68;6.18;;;5.70;99.90;;;;;;5053778;28;20076;-71
2022/04/29 01:38:39;;;;;;;10.10;6.05;;;5.70;99.90;;;;;;5053849;28;20072;-70
2022/04/29 01:41:06;;;;;;;9.23;5.70;;;5.80;99.90;;;;;;5037093;28;20481;-70
2022/04/29 01:43:33;;;;;;;9.70;5.78;;;5.90;99.90;;;;;;5053905;28;20405;-70
2022/04/29 01:45:58;;;;;;;8.43;5.10;;;5.90;99.90;;;;;;5053760;28;20381;-71
2022/04/29 01:48:25;;;;;;;10.57;4.75;;;6.00;99.90;;;;;;5053924;28;20231;-70
2022/04/29 01:50:51;;;;;;;8.13;4.60;;;6.00;99.90;;;;;;5053561;28;20068;-70
2022/04/29 01:53:16;;;;;;;7.45;4.85;;;6.00;99.90;;;;;;5053936;28;20142;-70
2022/04/29 01:55:42;;;;;;;11.32;6.38;;;5.90;99.90;;;;;;5036677;28;20203;-70
2022/04/29 01:58:07;;;;;;;9.02;5.07;;;5.70;99.90;;;;;;5053490;28;20492;-70
2022/04/29 02:00:33;;;;;;;11.57;5.90;;;5.70;99.90;;;;;;5053460;28;20045;-71
2022/04/29 02:02:59;;;;;;;9.65;5.70;;;5.60;99.90;;;;;;5053405;28;20076;-71
2022/04/29 02:05:24;;;;;;;12.27;5.75;;;5.50;99.90;;;;;;5053259;28;20045;-70
2022/04/29 02:07:50;;;;;;;11.52;6.20;;;5.50;99.90;;;;;;5050509;28;20041;-71
2022/04/29 02:10:16;;;;;;;11.77;6.20;;;5.40;99.90;;;;;;5067962;28;20459;-70
2022/04/29 02:12:42;;;;;;;10.32;6.07;;;5.40;99.90;;;;;;5049741;28;20045;-71
2022/04/29 02:15:08;;;;;;;10.57;5.97;;;5.30;99.90;;;;;;5035763;28;20409;-71
2022/04/29 02:17:33;;;;;;;10.73;5.72;;;5.40;99.90;;;;;;5035863;28;20040;-71
2022/04/29 02:19:59;;;;;;;11.40;6.57;;;5.40;99.90;;;;;;5052510;28;20409;-71
2022/04/29 02:22:25;;;;;;;9.98;5.78;;;5.40;99.90;;;;;;5054980;28;20065;-71
2022/04/29 02:24:50;;;;;;;11.93;6.30;;;5.40;99.90;;;;;;5056272;28;20055;-70
2022/04/29 02:27:16;;;;;;;10.55;6.32;;;5.40;99.90;;;;;;5065975;28;20482;-70
2022/04/29 02:29:42;;;;;;;13.80;6.38;;;5.40;99.90;;;;;;5035015;28;20083;-70
2022/04/29 02:32:07;;;;;;;11.38;5.85;;;5.40;99.90;;;;;;5038881;28;20072;-70
2022/04/29 02:34:36;;;;;;;10.52;5.78;;;5.30;99.90;;;;;;5052222;28;20477;-70
2022/04/29 02:37:02;;;;;;;11.82;6.05;;;5.40;99.90;;;;;;5052040;28;20112;-71
2022/04/29 02:39:28;;;;;;;11.90;6.20;;;5.30;99.90;;;;;;5054608;28;20052;-70
2022/04/29 02:41:54;;;;;;;12.88;7.00;;;5.30;99.90;;;;;;5050314;28;20033;-70
2022/04/29 02:44:20;;;;;;;10.85;6.22;;;5.30;99.90;;;;;;5053557;28;20045;-71
2022/04/29 02:49:30;;;;;;;10.70;6.25;;;5.20;99.90;;;;;;5053019;28;20036;-70
2022/04/29 02:51:56;;;;;;;9.95;5.80;;;5.30;99.90;;;;;;5052346;28;20044;-71
2022/04/29 02:54:22;;;;;;;10.10;5.82;;;5.30;99.90;;;;;;5053619;28;20043;-70
2022/04/29 02:56:50;;;;;;;10.85;5.85;;;5.40;99.90;;;;;;5035654;28;20041;-71
2022/04/29 02:59:19;;;;;;;10.25;6.22;;;5.40;99.90;;;;;;5068157;28;20087;-71
2022/04/29 03:01:45;;;;;;;12.10;6.72;;;5.40;99.90;;;;;;5051178;28;20044;-71
2022/04/29 03:04:11;;;;;;;9.30;6.18;;;5.30;99.90;;;;;;5051435;28;20033;-71
2022/04/29 03:06:36;;;;;;;9.98;5.95;;;5.30;99.90;;;;;;5051053;28;20106;-71
2022/04/29 03:09:02;;;;;;;10.63;6.30;;;5.10;99.90;;;;;;5035558;28;20036;-71
2022/04/29 03:11:28;;;;;;;10.35;6.03;;;5.20;99.90;;;;;;5034913;28;20102;-71
2022/04/29 03:13:53;;;;;;;10.95;6.40;;;5.20;99.90;;;;;;5051201;28;20036;-71
2022/04/29 03:16:19;;;;;;;9.45;6.05;;;5.30;99.90;;;;;;5034907;28;20041;-71
2022/04/29 03:18:44;;;;;;;9.00;6.22;;;5.40;99.90;;;;;;5068155;28;20095;-70
2022/04/29 03:21:10;;;;;;;10.65;6.50;;;5.40;99.90;;;;;;5051345;28;20618;-70
2022/04/29 03:23:36;;;;;;;15.45;6.18;;;5.40;99.90;;;;;;5052286;28;20073;-71
2022/04/29 03:26:03;;;;;;;13.10;6.25;;;5.30;99.90;;;;;;5054753;28;20523;-71
2022/04/29 03:28:29;;;;;;;10.35;6.20;;;5.20;99.90;;;;;;5034804;28;20079;-71
2022/04/29 03:30:54;;;;;;;13.10;6.95;;;5.20;99.90;;;;;;5050309;28;20080;-70
2022/04/29 03:33:20;;;;;;;11.13;6.32;;;5.20;99.90;;;;;;5051301;28;20045;-71
2022/04/29 03:35:47;;;;;;;10.48;6.30;;;5.20;99.90;;;;;;5053277;28;20041;-71
2022/04/29 03:38:13;;;;;;;9.43;6.05;;;5.20;99.90;;;;;;5051682;28;20041;-71
2022/04/29 03:40:39;;;;;;;12.60;6.90;;;5.10;99.90;;;;;;5051806;28;20037;-71
2022/04/29 03:43:06;;;;;;;9.32;6.07;;;5.10;99.90;;;;;;5051914;28;20041;-70
2022/04/29 03:45:32;;;;;;;9.82;6.55;;;5.00;99.90;;;;;;5054604;28;20063;-71
2022/04/29 03:47:58;;;;;;;10.52;5.80;;;4.90;99.90;;;;;;5034486;28;20048;-71
2022/04/29 03:50:25;;;;;;;9.32;5.95;;;5.00;99.90;;;;;;5034772;28;20041;-71
2022/04/29 03:52:56;;;;;;;11.13;6.32;;;5.00;99.90;;;;;;5051993;28;20374;-70
2022/04/29 03:55:25;;;;;;;12.00;6.53;;;4.90;99.90;;;;;;5056375;28;20049;-70
2022/04/29 03:57:53;;;;;;;9.98;5.95;;;4.90;99.90;;;;;;5050386;28;20500;-70
2022/04/29 04:00:19;;;;;;;12.23;6.63;;;4.90;99.90;;;;;;5050770;28;20041;-70
2022/04/29 04:02:45;;;;;;;11.07;6.40;;;4.90;99.90;;;;;;5034228;28;20047;-70
2022/04/29 04:05:12;;;;;;;11.68;6.57;;;4.90;99.90;;;;;;5051558;28;20127;-70
2022/04/29 04:07:37;;;;;;;10.27;6.05;;;4.90;99.90;;;;;;5050616;28;20151;-70
2022/04/29 04:10:04;;;;;;;10.25;6.03;;;4.80;99.90;;;;;;5034767;28;20405;-71
2022/04/29 04:12:49;;;;;;;10.00;6.45;;;4.80;99.90;;;;;;5050732;28;20045;-71
2022/04/29 04:15:16;;;;;;;11.43;5.57;;;4.80;99.90;;;;;;5051390;28;20051;-70
2022/04/29 04:17:43;;;;;;;12.40;6.75;;;4.80;99.90;;;;;;5049337;28;20354;-71
2022/04/29 04:20:10;;;;;;;10.68;6.10;;;4.90;99.90;;;;;;5033596;28;20524;-71
2022/04/29 04:22:36;;;;;;;9.38;5.53;;;4.90;99.90;;;;;;5069224;28;20048;-71
2022/04/29 04:25:08;;;;;;;11.70;6.47;;;5.00;99.90;;;;;;5054464;28;20045;-70
2022/04/29 04:27:34;;;;;;;9.60;5.80;;;4.90;99.90;;;;;;5050406;28;20044;-71
2022/04/29 04:30:00;;;;;;;9.32;5.22;;;4.90;99.90;;;;;;5049441;28;20041;-71
2022/04/29 04:32:26;;;;;;;10.73;4.78;;;5.00;99.90;;;;;;5050890;28;20072;-71
2022/04/29 04:34:57;;;;;;;10.05;5.68;;;5.20;99.90;;;;;;5033843;28;20045;-70
2022/04/29 04:37:25;;;;;;;10.95;5.30;;;5.30;99.90;;;;;;5033176;28;20045;-71
2022/04/29 04:39:52;;;;;;;9.00;4.57;;;5.30;99.90;;;;;;5051563;28;20474;-70
2022/04/29 04:42:18;;;;;;;9.15;5.53;;;5.20;99.90;;;;;;5052170;28;20052;-71
2022/04/29 04:44:46;;;;;;;10.43;5.68;;;5.20;99.90;;;;;;5037938;28;20044;-70
2022/04/29 04:47:11;;;;;;;8.88;5.10;;;5.10;99.90;;;;;;5041849;28;20068;-70
2022/04/29 04:49:37;;;;;;;10.48;6.00;;;5.00;99.90;;;;;;5054715;28;20129;-70
2022/04/29 04:52:03;;;;;;;10.13;6.20;;;5.00;99.90;;;;;;5037772;28;20041;-71
2022/04/29 04:54:28;;;;;;;9.90;5.78;;;5.00;99.90;;;;;;5053421;28;20049;-70
2022/04/29 04:56:54;;;;;;;11.00;6.18;;;5.10;99.90;;;;;;5036727;28;20045;-70
2022/04/29 04:59:20;;;;;;;11.25;6.40;;;5.10;99.90;;;;;;5054400;28;20036;-70
2022/04/29 05:01:45;;;;;;;11.48;6.97;;;5.10;99.90;;;;;;5053202;28;20129;-70
2022/04/29 05:04:11;;;;;;;11.57;6.55;;;5.20;99.90;;;;;;5053738;28;20040;-70
2022/04/29 05:06:37;;;;;;;12.18;6.50;;;5.30;99.90;;;;;;5053518;28;20060;-70
2022/04/29 05:09:06;;;;;;;11.80;6.88;;;5.30;99.90;;;;;;5053495;28;20545;-71
2022/04/29 05:11:32;;;;;;;12.82;7.20;;;5.30;99.90;;;;;;5053947;28;20040;-70
2022/04/29 05:13:57;;;;;;;10.82;6.65;;;5.40;99.90;;;;;;5054289;28;20512;-70
2022/04/29 05:16:24;;;;;;;13.93;6.70;;;5.40;99.90;;;;;;5036799;28;20044;-70
2022/04/29 05:18:50;;;;;;;12.23;6.47;;;5.60;99.90;;;;;;5054165;28;20037;-70
2022/04/29 05:21:16;;;;;;;10.65;6.45;;;5.70;99.90;;;;;;5036890;28;20551;-71
2022/04/29 05:23:42;;;;;;;12.15;6.72;;;5.80;99.90;;;;;;5056521;28;20037;-70
2022/04/29 05:26:07;;;;;;;11.50;6.65;;;5.90;99.90;;;;;;5054452;28;20075;-71
2022/04/29 05:28:34;;;;;;;10.02;6.25;;;6.00;99.90;;;;;;5052294;28;20068;-71
2022/04/29 05:31:00;;;;;;;10.73;6.15;;;6.00;99.90;;;;;;5053154;28;20577;-70
2022/04/29 05:33:26;;;;;;;11.05;6.50;;;6.10;99.90;;;;;;5052188;28;20037;-70
2022/04/29 05:35:52;;;;;;;14.82;7.00;;;6.20;99.90;;;;;;5052138;28;20053;-71
2022/04/29 05:38:18;;;;;;;13.50;7.68;;;6.30;99.90;;;;;;5052598;28;20059;-71
2022/04/29 05:43:28;;;;;;;13.80;7.28;;;6.40;99.90;;;;;;5046769;28;20041;-71
2022/04/29 05:45:54;;;;;;;12.88;7.07;;;6.50;99.90;;;;;;5047152;28;20508;-71
2022/04/29 05:48:20;;;;;;;11.10;5.93;;;6.60;99.90;;;;;;5044021;28;20041;-71
2022/04/29 05:50:46;;;;;;;12.05;6.13;;;6.80;99.90;;;;;;5034857;28;20045;-70
2022/04/29 05:53:12;;;;;;;10.95;6.43;;;6.90;99.90;;;;;;5052723;28;20408;-70
2022/04/29 05:55:38;;;;;;;9.52;6.03;;;6.90;99.90;;;;;;5033567;28;20397;-71
2022/04/29 05:58:04;;;;;;;11.57;6.05;;;6.90;99.90;;;;;;5045531;28;20041;-70
2022/04/29 06:00:29;;;;;;;11.82;6.38;;;7.00;99.90;;;;;;5055259;28;20025;-71
2022/04/29 06:02:55;;;;;;;11.68;6.40;;;7.00;99.90;;;;;;5054162;28;20033;-71
2022/04/29 06:05:21;;;;;;;11.68;6.70;;;7.00;99.90;;;;;;5053364;28;20519;-71
2022/04/29 06:07:47;;;;;;;10.52;6.25;;;7.10;99.90;;;;;;5051790;28;20044;-71
2022/04/29 06:10:12;;;;;;;9.90;5.40;;;7.10;99.90;;;;;;5035394;28;20044;-71
2022/04/29 06:12:39;;;;;;;13.82;5.10;;;7.30;99.90;;;;;;5034612;28;20106;-70
2022/04/29 06:15:05;;;;;;;11.23;5.50;;;7.40;99.90;;;;;;5029530;28;20033;-71
2022/04/29 06:17:31;;;;;;;9.48;4.40;;;7.50;99.90;;;;;;5052558;28;20032;-71
2022/04/29 06:19:57;;;;;;;11.18;5.60;;;7.50;99.90;;;;;;5036033;28;20037;-70
2022/04/29 06:22:23;;;;;;;10.50;5.32;;;7.60;99.90;;;;;;5052566;28;20033;-70
2022/04/29 06:24:50;;;;;;;12.18;6.82;;;7.60;99.90;;;;;;5033995;28;20079;-70
2022/04/29 06:27:15;;;;;;;7.70;5.30;;;7.60;99.90;;;;;;5034252;28;20044;-71
2022/04/29 06:29:41;;;;;;;13.63;5.07;;;7.80;99.90;;;;;;5051560;28;20045;-71
2022/04/29 06:32:07;;;;;;;8.10;4.72;;;7.80;99.90;;;;;;5041348;28;20433;-70
2022/04/29 06:34:33;;;;;;;9.23;5.53;;;7.90;99.90;;;;;;5051043;28;20142;-70
2022/04/29 06:36:59;;;;;;;11.13;5.90;;;7.90;99.90;;;;;;5051657;28;20073;-70
2022/04/29 06:39:24;;;;;;;9.50;4.93;;;7.90;99.90;;;;;;5051370;28;20033;-70
2022/04/29 06:41:50;;;;;;;12.05;5.75;;;8.00;99.90;;;;;;5051562;28;20033;-70
2022/04/29 06:44:15;;;;;;;10.98;5.43;;;8.00;99.90;;;;;;5035338;28;20075;-70
2022/04/29 06:46:42;;;;;;;12.25;5.05;;;8.00;99.90;;;;;;5044423;28;20033;-70
2022/04/29 06:49:09;;;;;;;10.68;5.63;;;8.10;99.90;;;;;;5027960;28;20079;-70
2022/04/29 06:51:35;;;;;;;9.70;5.05;;;8.10;99.90;;;;;;5033986;28;20064;-71
2022/04/29 06:54:01;;;;;;;9.65;5.03;;;8.20;99.90;;;;;;5050612;28;20393;-71
2022/04/29 06:56:26;;;;;;;12.80;4.95;;;8.30;99.90;;;;;;5049806;28;20108;-70
2022/04/29 06:58:53;;;;;;;10.23;4.05;;;8.40;99.90;;;;;;5034900;28;20135;-71
2022/04/29 07:01:19;;;;;;;13.38;4.38;;;8.30;99.90;;;;;;5049590;28;20040;-71
2022/04/29 07:03:45;;;;;;;8.88;4.07;;;8.40;99.90;;;;;;5049310;28;20059;-71
2022/04/29 07:06:11;;;;;;;8.93;3.53;;;8.30;99.90;;;;;;5040630;28;20445;-71
2022/04/29 07:08:36;;;;;;;9.00;3.50;;;8.40;99.90;;;;;;5049518;28;20041;-71
2022/04/29 07:11:02;;;;;;;8.05;3.58;;;8.40;99.90;;;;;;5049158;28;20047;-71
2022/04/29 07:13:28;;;;;;;6.85;4.03;;;8.60;99.90;;;;;;5034460;28;20052;-71
2022/04/29 07:15:54;;;;;;;9.02;3.95;;;8.50;99.90;;;;;;5050672;28;20095;-71
2022/04/29 07:18:20;;;;;;;10.30;4.40;;;8.50;99.90;;;;;;5034199;28;20444;-71
2022/04/29 07:20:46;;;;;;;6.70;3.58;;;8.60;99.90;;;;;;5033299;28;20044;-71
2022/04/29 07:23:11;;;;;;;7.18;3.78;;;8.60;99.90;;;;;;5043677;28;20032;-71
2022/04/29 07:25:37;;;;;;;6.95;3.53;;;8.60;99.90;;;;;;5049686;28;20083;-71
2022/04/29 07:28:03;;;;;;;9.75;3.40;;;8.70;99.90;;;;;;5050683;28;20043;-71
2022/04/29 07:30:29;;;;;;;8.30;3.55;;;8.90;99.90;;;;;;5068173;28;20033;-71
2022/04/29 07:32:54;;;;;;;11.68;3.42;;;9.00;99.90;;;;;;5066214;28;20043;-71
2022/04/29 07:43:36;;;;;;;7.32;3.75;;;9.20;99.90;;;;;;5050242;28;20078;-70
2022/04/29 07:46:03;;;;;;;6.57;3.55;;;9.30;99.90;;;;;;5051709;28;20061;-71
2022/04/29 07:48:29;;;;;;;9.88;4.05;;;9.40;99.90;;;;;;5050394;28;20080;-70
2022/04/29 07:50:55;;;;;;;7.70;3.55;;;9.40;99.90;;;;;;5048730;28;20522;-71
2022/04/29 07:53:20;;;;;;;6.53;3.13;;;9.50;99.90;;;;;;5050158;28;20037;-70
2022/04/29 07:55:46;;;;;;;9.07;3.95;;;9.60;99.90;;;;;;5046087;28;20049;-71
2022/04/29 07:58:12;;;;;;;7.30;3.97;;;9.70;99.90;;;;;;5048868;28;20032;-71
2022/04/29 08:00:38;;;;;;;10.18;3.60;;;9.70;99.90;;;;;;5062227;28;20038;-71
2022/04/29 08:03:04;;;;;;;7.55;3.70;;;9.80;99.90;;;;;;5055938;28;20130;-71
2022/04/29 08:05:30;;;;;;;7.40;3.20;;;9.90;99.90;;;;;;5030660;28;20050;-71
2022/04/29 08:07:59;;;;;;;6.43;3.10;;;10.00;99.90;;;;;;5049051;28;20037;-71
2022/04/29 08:10:32;;;;;;;6.80;2.70;;;10.00;99.90;;;;;;5048342;28;20531;-71
2022/04/29 08:12:59;;;;;;;6.43;2.78;;;10.00;99.90;;;;;;5061817;28;20045;-71
2022/04/29 08:15:29;;;;;;;5.88;2.70;;;10.10;99.90;;;;;;5031135;28;20049;-71
2022/04/29 08:17:57;;;;;;;8.48;2.88;;;10.10;99.90;;;;;;5024469;28;20040;-71
2022/04/29 08:20:23;;;;;;;7.88;3.20;;;10.20;99.90;;;;;;5052522;28;20032;-71
2022/04/29 08:22:49;;;;;;;6.35;2.90;;;10.20;99.90;;;;;;5064723;28;20045;-71
2022/04/29 08:25:17;;;;;;;7.82;3.15;;;10.20;99.90;;;;;;5054860;28;20044;-71
2022/04/29 08:27:43;;;;;;;6.72;2.60;;;10.20;99.90;;;;;;5054692;28;20052;-71
2022/04/29 08:30:08;;;;;;;8.27;3.00;;;10.30;99.90;;;;;;5048018;28;20049;-71
2022/04/29 08:32:39;;;;;;;8.30;2.88;;;10.20;99.90;;;;;;5049226;28;20036;-71
2022/04/29 08:35:05;;;;;;;9.07;2.83;;;10.30;99.90;;;;;;5053431;28;20057;-71
2022/04/29 08:37:31;;;;;;;9.20;2.65;;;10.50;99.90;;;;;;5037661;28;20162;-71
2022/04/29 08:39:56;;;;;;;6.15;2.80;;;10.50;99.90;;;;;;5037140;28;20053;-71
2022/04/29 08:42:26;;;;;;;4.88;2.53;;;10.50;99.90;;;;;;5053581;28;20039;-71
2022/04/29 08:44:53;;;;;;;6.60;2.63;;;10.30;99.90;;;;;;5036243;28;20033;-71
2022/04/29 08:47:19;;;;;;;5.68;2.40;;;10.30;99.90;;;;;;5029331;28;20045;-71
2022/04/29 08:49:46;;;;;;;9.13;2.90;;;10.40;99.90;;;;;;5048275;28;20079;-71
2022/04/29 08:52:14;;;;;;;5.90;2.97;;;10.30;99.90;;;;;;5069416;28;20044;-71
2022/04/29 09:00:13;;;;;;;7.50;2.75;;;10.30;99.90;;;;;;5035761;28;20045;-71
2022/04/29 09:02:40;;;;;;;5.80;2.63;;;10.40;99.90;;;;;;5051157;28;20037;-71
2022/04/29 09:05:10;;;;;;;5.00;2.28;;;10.40;99.90;;;;;;5061231;28;20049;-71
2022/04/29 09:07:56;;;;;;;7.85;2.80;;;10.40;99.90;;;;;;5052875;28;20072;-71
2022/04/29 09:10:34;;;;;;;6.18;2.67;;;10.40;99.90;;;;;;5036303;28;20049;-71
2022/04/29 09:13:13;;;;;;;6.88;2.75;;;10.50;99.90;;;;;;5036186;28;20064;-71
2022/04/29 09:15:49;;;;;;;6.43;2.70;;;10.60;99.90;;;;;;5053969;28;20118;-71
2022/04/29 09:18:32;;;;;;;7.68;2.40;;;10.70;99.90;;;;;;5054222;28;20397;-71
2022/04/29 09:20:58;;;;;;;;;;;10.80;99.90;;;;;;5032142;28;20549;-71
2022/04/29 09:23:30;;;;;;;7.60;2.40;;;10.90;99.90;;;;;;5034004;28;20008;-71
2022/04/29 09:26:01;;;;;;;7.40;2.35;;;10.90;99.90;;;;;;5048592;28;20041;-71
2022/04/29 09:28:27;;;;;;;6.15;2.15;;;11.00;99.90;;;;;;5053419;28;20124;-71
2022/04/29 09:30:56;;;;;;;6.80;2.15;;;10.90;99.90;;;;;;5053974;28;20115;-71
2022/04/29 09:33:25;;;;;;;7.13;2.40;;;10.90;99.90;;;;;;5053619;28;20178;-71
2022/04/29 09:35:51;;;;;;;6.45;2.22;;;10.80;99.90;;;;;;5053136;28;20068;-71
2022/04/29 09:41:02;;;;;;;5.15;2.15;;;10.90;99.90;;;;;;5033872;28;20042;-71
2022/04/29 09:43:43;;;;;;;9.93;2.35;;;10.90;99.90;;;;;;5033714;28;20057;-71
2022/04/29 09:46:20;;;;;;;8.00;2.60;;;10.90;99.90;;;;;;5052411;28;20048;-71
2022/04/29 09:49:09;;;;;;;5.68;2.20;;;10.90;99.90;;;;;;5036614;28;20037;-71
2022/04/29 09:51:45;;;;;;;6.45;2.50;;;10.80;99.90;;;;;;5036624;28;20043;-70
2022/04/29 09:54:26;;;;;;;6.95;2.40;;;10.90;99.90;;;;;;5053236;28;20048;-71
2022/04/29 09:57:13;;;;;;;9.13;2.38;;;11.00;99.90;;;;;;5033541;28;20442;-70
2022/04/29 09:59:47;;;;;;;7.25;2.67;;;10.80;99.90;;;;;;5033629;28;20486;-70
2022/04/29 10:02:15;;;;;;;6.13;2.30;;;10.80;99.90;;;;;;5036176;28;20042;-71
2022/04/29 10:04:44;;;;;;;8.63;2.83;;;10.80;99.90;;;;;;5052688;28;20045;-71
2022/04/29 10:07:12;;;;;;;7.35;2.42;;;10.70;99.90;;;;;;5036738;28;20045;-70
2022/04/29 10:09:40;;;;;;;7.05;2.85;;;10.80;99.90;;;;;;5036307;28;20049;-71
2022/04/29 10:12:29;;;;;;;7.60;2.88;;;10.70;99.90;;;;;;5046504;28;20045;-70
2022/04/29 10:15:05;;;;;;;7.53;2.90;;;10.70;99.90;;;;;;5033193;28;20052;-71
2022/04/29 10:23:08;;;;;;;6.05;3.08;;;10.80;99.90;;;;;;5049300;28;20449;-71
2022/04/29 10:25:35;;;;;;;7.53;3.30;;;10.80;99.90;;;;;;5016331;28;20083;-71
2022/04/29 10:28:01;;;;;;;9.25;4.00;;;10.90;99.90;;;;;;5039926;28;20139;-71
2022/04/29 10:30:37;;;;;;;8.48;3.80;;;10.90;99.90;;;;;;5034813;28;20489;-71
2022/04/29 10:33:13;;;;;;;7.93;3.22;;;10.90;99.90;;;;;;5052802;28;20044;-71
2022/04/29 10:35:49;;;;;;;7.57;3.85;;;10.90;99.90;;;;;;5035393;28;20539;-71
2022/04/29 10:38:15;;;;;;;8.50;3.78;;;10.90;99.90;;;;;;5036229;28;20052;-71
2022/04/29 10:40:42;;;;;;;6.25;3.75;;;10.90;99.90;;;;;;5051470;28;20469;-70
2022/04/29 10:43:09;;;;;;;8.80;3.33;;;11.00;99.90;;;;;;5052376;28;20033;-71
2022/04/29 10:45:56;;;;;;;8.77;3.63;;;10.90;99.90;;;;;;5065956;28;20076;-71
2022/04/29 10:48:32;;;;;;;6.82;3.55;;;10.90;99.90;;;;;;5032548;28;20124;-71
2022/04/29 10:51:08;;;;;;;9.40;4.30;;;11.10;99.90;;;;;;5032198;28;20088;-71
2022/04/29 10:53:42;;;;;;;6.97;3.58;;;10.90;99.90;;;;;;5032176;28;20124;-71
2022/04/29 10:56:26;;;;;;;7.65;3.72;;;11.00;99.90;;;;;;5032478;28;20076;-71
2022/04/29 10:58:52;;;;;;;6.00;3.60;;;10.90;99.90;;;;;;5067489;28;20102;-71
2022/04/29 11:01:24;;;;;;;7.18;3.75;;;10.90;99.90;;;;;;5051861;28;20511;-71
2022/04/29 11:03:50;;;;;;;;;;;10.80;99.90;;;;;;5034141;28;20032;-71
2022/04/29 11:06:16;;;;;;;6.60;4.05;;;10.90;99.90;;;;;;5041485;28;19916;-71
2022/04/29 11:08:44;;;;;;;10.73;4.68;;;10.90;99.90;;;;;;5068566;28;20131;-71
2022/04/29 11:11:10;;;;;;;5.85;3.85;;;10.90;99.90;;;;;;5051737;28;20485;-71
2022/04/29 11:13:42;;;;;;;8.50;4.20;;;10.90;99.90;;;;;;5051854;28;20043;-71
2022/04/29 11:16:16;;;;;;;7.78;4.55;;;10.80;99.90;;;;;;5035006;28;20045;-71
2022/04/29 11:18:44;;;;;;;7.53;4.47;;;10.80;99.90;;;;;;5035222;28;20041;-71
2022/04/29 11:26:52;;;;;;;7.88;4.10;;;10.80;99.90;;;;;;5051698;28;20045;-71
2022/04/29 11:29:18;;;;;;;7.80;4.20;;;10.80;99.90;;;;;;5051846;28;20440;-71
2022/04/29 11:31:44;;;;;;;10.63;5.38;;;10.80;99.90;;;;;;5051833;28;20405;-71
2022/04/29 11:34:14;;;;;;;10.35;5.00;;;10.80;99.90;;;;;;5051601;28;20057;-71
2022/04/29 11:36:41;;;;;;;8.38;4.18;;;10.80;99.90;;;;;;5031418;28;20544;-71
2022/04/29 11:39:17;;;;;;;9.05;4.35;;;10.90;99.90;;;;;;5031882;28;20037;-71
2022/04/29 11:41:58;;;;;;;8.73;4.10;;;10.80;99.90;;;;;;5048071;28;20052;-71
2022/04/29 11:44:38;;;;;;;9.88;4.57;;;10.70;99.90;;;;;;5031678;28;20041;-71
2022/04/29 11:47:05;;;;;;;9.40;3.60;;;10.80;99.90;;;;;;5058498;28;20124;-71
2022/04/29 11:49:34;;;;;;;8.77;3.80;;;10.80;99.90;;;;;;5051909;28;20025;-71
2022/04/29 11:52:32;;;;;;;8.32;4.90;;;10.80;99.90;;;;;;5037094;28;20044;-71
2022/04/29 11:55:14;;;;;;;6.78;3.40;;;10.90;99.90;;;;;;5041465;28;20068;-71
2022/04/29 11:57:45;;;;;;;7.10;3.75;;;10.90;99.90;;;;;;5035870;28;20116;-71
2022/04/29 12:00:24;;;;;;;7.32;3.25;;;10.90;99.90;;;;;;5036579;28;20040;-71
2022/04/29 12:02:50;;;;;;;8.13;3.55;;;11.00;99.90;;;;;;5035546;28;20040;-71
2022/04/29 12:05:16;;;;;;;6.90;3.60;;;11.10;99.90;;;;;;5051955;28;20041;-71
2022/04/29 12:07:43;;;;;;;9.32;3.78;;;11.10;99.90;;;;;;5035655;28;20124;-71
2022/04/29 12:10:23;;;;;;;10.30;3.97;;;11.10;99.90;;;;;;5051791;28;20041;-71
2022/04/29 12:13:00;;;;;;;11.13;3.80;;;11.20;99.90;;;;;;5035522;28;20056;-71
2022/04/29 12:15:34;;;;;;;8.38;4.03;;;11.30;99.90;;;;;;5053724;28;20045;-71
2022/04/29 12:18:02;;;;;;;6.97;3.50;;;11.40;99.90;;;;;;5038432;28;20041;-71
2022/04/29 12:20:28;;;;;;;7.88;3.47;;;11.40;99.90;;;;;;5038636;28;20401;-71
2022/04/29 12:22:54;;;;;;;7.45;3.50;;;11.40;99.90;;;;;;5055020;28;20045;-71
2022/04/29 12:25:27;;;;;;;7.68;3.50;;;11.30;99.90;;;;;;5038574;28;20512;-71
2022/04/29 12:28:08;;;;;;;6.28;3.25;;;11.40;99.90;;;;;;5055158;28;20122;-71
2022/04/29 12:36:14;;;;;;;7.38;3.38;;;11.10;99.90;;;;;;5035039;28;20150;-71
2022/04/29 12:38:47;;;;;;;6.63;3.17;;;11.10;99.10;;;;;;5035199;28;20044;-71
2022/04/29 12:41:29;;;;;;;7.72;3.17;;;11.20;99.90;;;;;;5042120;28;20033;-71
2022/04/29 12:44:07;;;;;;;6.28;3.33;;;11.20;99.90;;;;;;5051086;28;20041;-71
2022/04/29 12:46:33;;;;;;;7.00;3.92;;;11.20;99.90;;;;;;5043420;28;20041;-71
2022/04/29 12:48:59;;;;;;;7.25;3.65;;;11.20;99.90;;;;;;5054266;28;20124;-71
2022/04/29 12:51:31;;;;;;;6.00;3.47;;;11.20;99.90;;;;;;5070891;28;20097;-71
2022/04/29 12:54:01;;;;;;;7.55;3.85;;;11.30;99.90;;;;;;5054594;28;20037;-71
2022/04/29 12:56:34;;;;;;;7.78;3.88;;;11.20;99.60;;;;;;5054194;28;20037;-71
2022/04/29 12:59:03;;;;;;;7.22;3.42;;;11.30;99.90;;;;;;5042156;28;20065;-71
2022/04/29 13:01:38;;;;;;;7.00;3.00;;;11.40;99.90;;;;;;5034523;28;20049;-71
2022/04/29 13:04:04;;;;;;;5.90;3.13;;;11.50;99.90;;;;;;5033780;28;20374;-71
2022/04/29 13:06:30;;;;;;;8.80;3.33;;;11.50;99.90;;;;;;5034171;28;20098;-71
2022/04/29 13:08:57;;;;;;;6.25;3.03;;;11.40;99.40;;;;;;5050790;28;20037;-71
2022/04/29 13:11:23;;;;;;;5.65;3.00;;;11.40;99.90;;;;;;5034508;28;20042;-71
2022/04/29 13:13:51;;;;;;;8.85;3.20;;;11.50;99.90;;;;;;5044576;28;20045;-71
2022/04/29 13:16:17;;;;;;;8.23;3.13;;;11.60;99.90;;;;;;5053850;28;20116;-71
2022/04/29 13:18:43;;;;;;;7.70;3.33;;;11.40;97.80;;;;;;5053956;28;20037;-71
2022/04/29 13:21:10;;;;;;;6.72;2.88;;;11.40;99.20;;;;;;5053818;28;20052;-71
2022/04/29 13:23:40;;;;;;;6.95;2.83;;;11.60;99.90;;;;;;5053745;28;20048;-71
2022/04/29 13:26:06;;;;;;;6.68;2.70;;;11.60;98.70;;;;;;5071275;28;20033;-71
2022/04/29 13:28:34;;;;;;;6.55;2.83;;;11.70;99.00;;;;;;5053641;28;20041;-71
2022/04/29 13:31:00;;;;;;;5.95;2.70;;;11.80;99.00;;;;;;5070461;28;20099;-71
2022/04/29 13:33:26;;;;;;;5.93;2.70;;;11.80;99.10;;;;;;5037030;28;20047;-71